Time;durP1;ratioP1;P1;durP2;ratioP2;P2;SDS_P1;SDS_P2;PMS_P1;PMS_P2;Temp;Humidity;BMP_temperature;BMP_pressure;BME280_temperature;BME280_humidity;BME280_pressure;Samples;Min_cycle;Max_cycle;Signal;HPM_P1;HPM_P2
2024/02/28 00:01:07;;;;;;;50.47;27.55;;;10.70;64.40;;;6.05;100.00;95267.22;5021761;28;20107;-57
2024/02/28 00:03:33;;;;;;;47.00;26.70;;;10.70;64.40;;;6.03;100.00;95268.28;5013726;28;20025;-53
2024/02/28 00:05:59;;;;;;;44.13;26.13;;;10.70;64.40;;;6.00;100.00;95271.41;5020117;28;20037;-55
2024/02/28 00:08:25;;;;;;;44.40;25.52;;;10.70;64.40;;;5.96;100.00;95274.78;5026417;28;20024;-56
2024/02/28 00:10:51;;;;;;;48.90;26.60;;;10.70;64.40;;;5.92;100.00;95281.56;5007261;28;20139;-57
2024/02/28 00:13:16;;;;;;;45.65;26.23;;;10.70;64.40;;;5.84;100.00;95277.50;5025341;28;20029;-55
2024/02/28 00:15:43;;;;;;;43.63;25.52;;;10.70;64.40;;;5.79;100.00;95275.56;5021548;28;20369;-57
2024/02/28 00:18:08;;;;;;;48.10;25.88;;;10.70;64.40;;;5.85;100.00;95276.44;5014184;28;20033;-57
2024/02/28 00:20:34;;;;;;;49.53;27.15;;;10.70;64.50;;;5.91;100.00;95279.97;5021592;28;20051;-59
2024/02/28 00:23:00;;;;;;;46.47;26.58;;;10.70;64.50;;;5.94;100.00;95274.22;5014245;28;20079;-54
2024/02/28 00:25:26;;;;;;;44.05;25.77;;;10.70;64.60;;;5.93;100.00;95275.28;5022880;28;20033;-58
2024/02/28 00:27:52;;;;;;;44.40;26.73;;;10.70;64.60;;;5.95;100.00;95276.63;5025921;28;20024;-58
2024/02/28 00:30:18;;;;;;;51.08;28.20;;;10.70;64.70;;;5.98;100.00;95283.25;5022306;28;20029;-53
2024/02/28 00:32:44;;;;;;;44.22;25.95;;;10.70;64.70;;;5.98;100.00;95284.06;5024547;28;20033;-59
2024/02/28 00:35:10;;;;;;;49.45;28.20;;;10.70;64.80;;;6.00;100.00;95286.47;5020169;28;20501;-52
2024/02/28 00:37:35;;;;;;;49.80;27.42;;;10.70;64.90;;;6.01;100.00;95288.06;5028036;28;20056;-58
2024/02/28 00:40:01;;;;;;;50.35;27.02;;;10.70;64.90;;;6.00;100.00;95289.91;5011725;28;20060;-57
2024/02/28 00:42:27;;;;;;;44.28;25.40;;;10.70;64.80;;;6.00;100.00;95299.69;5026253;28;20032;-55
2024/02/28 00:44:53;;;;;;;41.88;25.35;;;10.70;64.90;;;5.97;100.00;95297.53;5015912;28;21343;-55
2024/02/28 00:47:19;;;;;;;49.80;26.88;;;10.70;64.80;;;6.00;100.00;95297.84;5023467;28;20272;-57
2024/02/28 00:49:44;;;;;;;52.92;26.73;;;10.70;64.80;;;5.97;100.00;95302.81;5023621;28;20063;-56
2024/02/28 00:52:10;;;;;;;45.08;27.42;;;10.70;64.80;;;5.98;100.00;95307.06;5022031;28;20145;-57
2024/02/28 00:54:37;;;;;;;42.60;26.15;;;10.80;64.90;;;5.97;100.00;95305.47;5022705;28;20124;-56
2024/02/28 00:57:03;;;;;;;45.00;26.48;;;10.70;64.80;;;5.98;100.00;95299.13;5019655;28;20026;-55
2024/02/28 00:59:29;;;;;;;44.53;25.75;;;10.80;64.90;;;5.97;100.00;95310.75;5020681;28;20060;-58
2024/02/28 01:01:54;;;;;;;44.45;25.80;;;10.70;64.90;;;5.99;100.00;95313.97;5008268;28;20455;-59
2024/02/28 01:04:20;;;;;;;44.30;25.67;;;10.70;64.90;;;5.97;100.00;95313.41;5012419;28;20041;-57
2024/02/28 01:06:46;;;;;;;48.35;26.63;;;10.70;64.90;;;5.96;100.00;95312.59;5025075;28;20024;-55
2024/02/28 01:09:12;;;;;;;41.55;25.13;;;10.70;64.90;;;5.92;100.00;95314.09;5021605;28;20306;-57
2024/02/28 01:11:38;;;;;;;43.92;25.75;;;10.70;64.90;;;5.92;100.00;95311.47;5027869;28;20036;-55
2024/02/28 01:14:04;;;;;;;42.15;25.58;;;10.70;65.00;;;5.94;100.00;95309.41;5019305;28;20384;-53
2024/02/28 01:16:30;;;;;;;44.72;25.30;;;10.70;65.00;;;5.94;100.00;95313.88;5006918;28;20056;-51
2024/02/28 01:18:56;;;;;;;45.15;25.35;;;10.70;65.00;;;5.93;100.00;95307.00;5016256;28;20107;-53
2024/02/28 01:21:22;;;;;;;43.80;24.48;;;10.70;65.00;;;5.95;100.00;95305.69;5020113;28;20025;-58
2024/02/28 01:23:48;;;;;;;45.20;25.38;;;10.70;65.10;;;5.94;100.00;95311.25;5015220;28;20272;-54
2024/02/28 01:26:14;;;;;;;42.03;25.05;;;10.70;65.10;;;5.94;100.00;95311.25;5024387;28;20024;-59
2024/02/28 01:28:42;;;;;;;47.08;26.33;;;10.70;65.20;;;5.90;100.00;95307.47;5015080;28;20052;-56
2024/02/28 01:31:08;;;;;;;50.15;27.33;;;10.70;65.20;;;5.94;100.00;95312.03;5021611;28;20036;-57
2024/02/28 01:33:34;;;;;;;45.00;25.05;;;10.70;65.20;;;5.95;100.00;95310.97;5019959;28;20025;-59
2024/02/28 01:36:00;;;;;;;41.10;25.80;;;10.70;65.20;;;5.96;100.00;95315.25;5020410;28;20025;-57
2024/02/28 01:38:26;;;;;;;42.58;24.45;;;10.60;65.20;;;5.99;100.00;95314.78;5021432;28;20115;-54
2024/02/28 01:40:52;;;;;;;46.95;26.35;;;10.70;65.20;;;6.00;100.00;95312.91;5005056;28;20476;-55
2024/02/28 01:43:18;;;;;;;40.88;24.75;;;10.70;65.30;;;6.02;100.00;95321.41;5004981;28;20022;-59
2024/02/28 01:45:44;;;;;;;46.35;26.05;;;10.80;65.30;;;5.97;100.00;95314.19;5009510;28;20032;-57
2024/02/28 01:48:12;;;;;;;40.33;24.50;;;10.70;65.20;;;5.96;100.00;95319.75;5001590;28;20508;-54
2024/02/28 01:50:39;;;;;;;45.33;25.92;;;10.70;65.30;;;5.90;100.00;95313.53;5010850;28;20032;-57
2024/02/28 01:53:11;;;;;;;42.00;24.52;;;10.70;65.30;;;5.86;100.00;95324.81;4991550;28;20029;-54
2024/02/28 01:55:38;;;;;;;42.38;24.63;;;10.70;65.30;;;5.83;100.00;95322.66;4992751;28;20167;-55
2024/02/28 01:58:06;;;;;;;40.85;23.60;;;10.70;65.20;;;5.87;100.00;95315.88;4995903;28;20062;-55
2024/02/28 02:00:37;;;;;;;42.90;24.05;;;10.70;65.30;;;5.86;100.00;95323.00;5000953;28;20045;-56
2024/02/28 02:03:04;;;;;;;42.30;23.80;;;10.70;65.30;;;5.91;100.00;95320.41;5002675;28;20476;-55
2024/02/28 02:05:30;;;;;;;44.67;24.67;;;10.60;65.20;;;5.92;100.00;95323.84;5001935;28;20040;-54
2024/02/28 02:07:59;;;;;;;43.75;25.23;;;10.70;65.20;;;5.93;100.00;95312.28;5002270;28;20026;-53
2024/02/28 02:10:28;;;;;;;45.83;26.40;;;10.70;65.30;;;5.92;100.00;95323.84;4987894;28;20507;-54
2024/02/28 02:12:54;;;;;;;42.10;25.58;;;10.70;65.40;;;5.93;100.00;95328.94;5003060;28;20061;-56
2024/02/28 02:15:20;;;;;;;47.90;25.92;;;10.70;65.30;;;5.96;100.00;95330.31;5006395;28;20098;-59
2024/02/28 02:17:46;;;;;;;40.20;24.10;;;10.60;65.30;;;5.92;100.00;95326.50;5003168;28;20037;-54
2024/02/28 02:20:15;;;;;;;39.13;23.90;;;10.70;65.30;;;5.86;100.00;95325.66;5003141;28;20057;-58
2024/02/28 02:22:41;;;;;;;44.53;26.40;;;10.70;65.40;;;5.92;100.00;95329.16;5006909;28;20029;-59
2024/02/28 02:25:08;;;;;;;38.65;24.25;;;10.60;65.40;;;5.93;100.00;95331.59;4994922;28;20381;-55
2024/02/28 02:27:34;;;;;;;45.90;25.63;;;10.70;65.40;;;5.97;100.00;95337.19;5001639;28;20017;-57
2024/02/28 02:30:00;;;;;;;41.95;24.20;;;10.70;65.50;;;5.95;100.00;95328.69;5003011;28;20038;-59
2024/02/28 02:32:25;;;;;;;41.97;23.92;;;10.70;65.40;;;5.98;100.00;95336.16;5002773;28;20021;-59
2024/02/28 02:34:51;;;;;;;41.40;24.55;;;10.70;65.40;;;5.98;100.00;95328.22;5004390;28;20026;-59
2024/02/28 02:37:17;;;;;;;44.90;25.73;;;10.70;65.40;;;6.03;100.00;95334.38;5006606;28;20476;-58
2024/02/28 02:39:43;;;;;;;46.25;27.23;;;10.70;65.40;;;6.05;100.00;95328.03;5003940;28;20033;-59
2024/02/28 02:42:09;;;;;;;42.85;25.23;;;10.70;65.40;;;6.07;100.00;95328.63;5004225;28;20021;-59
2024/02/28 02:44:34;;;;;;;44.40;25.40;;;10.70;65.50;;;5.95;100.00;95328.69;5001183;28;20030;-58
2024/02/28 02:47:00;;;;;;;45.42;24.83;;;10.70;65.40;;;5.90;100.00;95333.91;5007400;28;20080;-54
2024/02/28 02:49:26;;;;;;;42.67;23.60;;;10.80;65.50;;;5.92;100.00;95331.78;5009806;28;20133;-54
2024/02/28 02:51:52;;;;;;;43.17;24.20;;;10.70;65.30;;;5.94;100.00;95335.81;5018365;28;20029;-52
2024/02/28 02:54:18;;;;;;;44.08;24.10;;;10.70;65.30;;;5.98;100.00;95336.16;5008017;28;20060;-53
2024/02/28 02:56:43;;;;;;;42.80;24.77;;;10.70;65.30;;;6.01;100.00;95330.38;5002118;28;20037;-54
2024/02/28 02:59:12;;;;;;;41.58;24.75;;;10.70;65.30;;;6.04;100.00;95335.19;5011363;28;20036;-57
2024/02/28 03:01:37;;;;;;;42.25;24.48;;;10.70;65.40;;;6.05;100.00;95331.50;5009550;28;20048;-58
2024/02/28 03:04:04;;;;;;;41.78;24.77;;;10.70;65.30;;;6.08;100.00;95335.50;5008168;28;20024;-57
2024/02/28 03:06:30;;;;;;;47.20;25.85;;;10.80;65.50;;;6.07;100.00;95329.41;5004023;28;20064;-54
2024/02/28 03:08:55;;;;;;;38.58;22.85;;;10.70;65.40;;;6.08;100.00;95331.03;5005028;28;20022;-54
2024/02/28 03:11:21;;;;;;;41.88;22.77;;;10.80;65.50;;;6.08;100.00;95336.31;5012984;28;20471;-56
2024/02/28 03:13:47;;;;;;;38.80;23.25;;;10.80;65.30;;;6.08;100.00;95335.50;5002336;28;20120;-55
2024/02/28 03:16:13;;;;;;;39.60;23.15;;;10.80;65.30;;;6.07;100.00;95347.13;5011827;28;20025;-59
2024/02/28 03:18:39;;;;;;;36.55;21.70;;;10.80;65.30;;;6.04;100.00;95345.75;5001902;28;20365;-53
2024/02/28 03:21:05;;;;;;;36.55;21.23;;;10.80;65.20;;;6.02;100.00;95342.56;5005891;28;20057;-53
2024/02/28 03:23:31;;;;;;;36.03;22.33;;;10.80;65.10;;;6.04;100.00;95353.69;5003008;28;20404;-54
2024/02/28 03:25:57;;;;;;;31.45;20.08;;;10.80;65.00;;;6.06;100.00;95358.75;5005897;28;20431;-57
2024/02/28 03:28:23;;;;;;;37.47;20.83;;;10.80;64.90;;;6.08;100.00;95365.41;5012852;28;20029;-56
2024/02/28 03:30:49;;;;;;;37.67;20.20;;;10.80;64.90;;;6.08;100.00;95376.00;5009493;28;20072;-56
2024/02/28 03:33:15;;;;;;;36.85;20.45;;;10.80;64.90;;;6.00;100.00;95365.81;5022563;28;20537;-55
2024/02/28 03:35:40;;;;;;;32.53;19.33;;;10.80;64.70;;;6.02;100.00;95371.66;5017643;28;20053;-54
2024/02/28 03:38:06;;;;;;;33.92;19.30;;;10.80;64.70;;;5.95;100.00;95381.56;5022058;28;20050;-55
2024/02/28 03:40:32;;;;;;;31.95;19.08;;;10.80;64.50;;;5.94;100.00;95387.91;5004300;28;20465;-56
2024/02/28 03:43:00;;;;;;;31.70;18.48;;;10.80;64.40;;;5.94;100.00;95383.41;5017986;28;20048;-56
2024/02/28 03:45:31;;;;;;;33.85;18.77;;;10.70;64.40;;;5.96;100.00;95378.69;5006742;28;20033;-55
2024/02/28 03:47:57;;;;;;;31.60;18.65;;;10.70;64.30;;;6.00;100.00;95386.94;5021434;28;20025;-59
2024/02/28 03:50:23;;;;;;;31.70;19.05;;;10.70;64.30;;;6.03;100.00;95397.06;5016809;28;20476;-58
2024/02/28 03:52:48;;;;;;;32.25;19.17;;;10.70;64.40;;;6.04;100.00;95401.28;5019576;28;20123;-55
2024/02/28 03:55:16;;;;;;;31.42;18.95;;;10.70;64.30;;;6.00;100.00;95405.47;5013784;28;20033;-58
2024/02/28 03:57:44;;;;;;;29.73;17.88;;;10.70;65.10;;;5.97;100.00;95411.22;5006932;28;20084;-57
2024/02/28 04:00:11;;;;;;;32.60;19.17;;;10.70;64.40;;;6.00;100.00;95416.03;5018890;28;20111;-57
2024/02/28 04:02:37;;;;;;;31.98;19.63;;;10.70;64.30;;;5.98;100.00;95405.69;5017207;28;20036;-56
2024/02/28 04:05:03;;;;;;;33.28;18.88;;;10.70;64.30;;;5.97;100.00;95400.66;5008050;28;20021;-54
2024/02/28 04:07:29;;;;;;;29.70;18.27;;;10.70;64.30;;;5.94;100.00;95404.56;5023491;28;20445;-57
2024/02/28 04:09:55;;;;;;;35.13;19.17;;;10.70;64.20;;;5.91;100.00;95409.50;5020973;28;20030;-57
2024/02/28 04:12:21;;;;;;;30.38;19.98;;;10.70;64.10;;;5.97;100.00;95408.59;5014873;28;20577;-54
2024/02/28 04:14:46;;;;;;;31.42;18.75;;;10.70;64.20;;;5.96;100.00;95399.84;5017972;28;20031;-55
2024/02/28 04:17:12;;;;;;;34.15;19.60;;;10.70;64.20;;;5.95;100.00;95405.38;5020545;28;20048;-54
2024/02/28 04:19:39;;;;;;;31.50;18.85;;;10.70;64.10;;;5.94;100.00;95401.13;5016814;28;20037;-56
2024/02/28 04:22:05;;;;;;;30.40;18.65;;;10.70;64.10;;;5.96;100.00;95412.28;5011156;28;20384;-53
2024/02/28 04:24:32;;;;;;;32.13;18.83;;;10.70;64.10;;;5.99;100.00;95409.94;5018654;28;20021;-55
2024/02/28 04:26:59;;;;;;;29.67;19.02;;;10.60;64.10;;;5.97;100.00;95414.66;5021562;28;20431;-56
2024/02/28 04:29:25;;;;;;;30.77;18.55;;;10.70;64.10;;;5.98;100.00;95410.19;5017194;28;20025;-57
2024/02/28 04:31:51;;;;;;;33.22;18.45;;;10.70;64.10;;;6.00;100.00;95408.09;5016739;28;20055;-56
2024/02/28 04:34:17;;;;;;;34.55;19.83;;;10.70;64.10;;;6.00;100.00;95421.31;5015844;28;20029;-55
2024/02/28 04:36:43;;;;;;;34.40;20.35;;;10.70;64.10;;;5.99;100.00;95420.53;5012434;28;20052;-57
2024/02/28 04:39:08;;;;;;;31.33;19.95;;;10.70;64.10;;;5.97;100.00;95422.59;5018540;28;20028;-59
2024/02/28 04:41:34;;;;;;;29.75;18.00;;;10.70;64.10;;;5.99;100.00;95431.09;5017883;28;20021;-58
2024/02/28 04:44:00;;;;;;;29.10;18.13;;;10.70;64.10;;;5.98;100.00;95424.19;5019867;28;21351;-56
2024/02/28 04:46:26;;;;;;;31.17;18.75;;;10.70;64.10;;;5.99;100.00;95427.66;5025031;28;20060;-59
2024/02/28 04:48:52;;;;;;;30.75;18.33;;;10.70;64.10;;;6.00;100.00;95432.69;5017820;28;20021;-59
2024/02/28 04:51:17;;;;;;;32.05;18.35;;;10.70;64.00;;;5.97;100.00;95435.81;5024605;28;20040;-59
2024/02/28 04:53:44;;;;;;;32.30;19.60;;;10.70;64.00;;;5.97;100.00;95435.03;5015581;28;20017;-59
2024/02/28 04:56:10;;;;;;;31.48;17.63;;;10.70;63.90;;;5.99;100.00;95433.75;5023685;28;20067;-59
2024/02/28 04:58:39;;;;;;;27.02;16.52;;;10.70;63.90;;;5.94;100.00;95440.78;5023436;28;20067;-57
2024/02/28 05:01:05;;;;;;;28.67;17.60;;;10.70;63.80;;;5.95;100.00;95437.88;5017299;28;20145;-57
2024/02/28 05:03:30;;;;;;;28.92;17.50;;;10.70;63.80;;;5.93;100.00;95442.63;5015362;28;20532;-55
2024/02/28 05:05:56;;;;;;;27.00;16.35;;;10.70;63.70;;;5.95;100.00;95452.97;5020058;28;20024;-57
2024/02/28 05:08:22;;;;;;;24.33;15.20;;;10.70;63.60;;;5.89;100.00;95451.22;5019646;28;20076;-54
2024/02/28 05:10:51;;;;;;;23.95;15.73;;;10.70;63.60;;;5.90;100.00;95453.66;5007256;28;20298;-54
2024/02/28 05:13:16;;;;;;;28.45;16.27;;;10.70;63.50;;;5.88;100.00;95457.56;5014194;28;20089;-57
2024/02/28 05:15:42;;;;;;;29.05;17.02;;;10.70;63.50;;;5.87;100.00;95464.72;5012319;28;20088;-56
2024/02/28 05:18:08;;;;;;;26.85;16.15;;;10.70;63.40;;;5.89;100.00;95461.81;5018728;28;20025;-59
2024/02/28 05:20:34;;;;;;;26.75;16.95;;;10.70;63.30;;;5.90;100.00;95469.53;5022554;28;20484;-58
2024/02/28 05:22:59;;;;;;;24.75;15.82;;;10.60;63.20;;;5.85;100.00;95472.06;5014068;28;20037;-56
2024/02/28 05:25:25;;;;;;;26.15;15.75;;;10.60;63.10;;;5.79;100.00;95476.44;5022203;28;20031;-57
2024/02/28 05:27:51;;;;;;;26.42;16.08;;;10.60;63.00;;;5.77;100.00;95483.81;5010754;28;20032;-58
2024/02/28 05:30:17;;;;;;;22.67;15.20;;;10.60;62.90;;;5.74;99.78;95476.38;5021537;28;20028;-54
2024/02/28 05:32:43;;;;;;;22.08;14.50;;;10.60;62.80;;;5.69;99.33;95480.75;5010117;28;20032;-58
2024/02/28 05:35:11;;;;;;;23.65;14.32;;;10.60;62.70;;;5.72;98.68;95477.63;5011823;28;20037;-53
2024/02/28 05:37:37;;;;;;;26.73;15.57;;;10.60;62.60;;;5.70;98.77;95482.34;5016827;28;20028;-57
2024/02/28 05:40:06;;;;;;;21.67;13.95;;;10.50;62.40;;;5.72;98.20;95478.44;5017832;28;20488;-55
2024/02/28 05:42:32;;;;;;;25.05;14.70;;;10.50;62.40;;;5.71;98.18;95484.78;5013991;28;20059;-58
2024/02/28 05:44:57;;;;;;;23.02;14.63;;;10.50;62.30;;;5.70;97.64;95485.00;5024260;28;20047;-55
2024/02/28 05:47:23;;;;;;;25.05;14.85;;;10.50;62.20;;;5.69;98.13;95484.19;5017034;28;20100;-58
2024/02/28 05:49:49;;;;;;;25.17;15.77;;;10.40;62.10;;;5.66;98.38;95489.16;5022795;28;20035;-56
2024/02/28 05:52:15;;;;;;;28.25;14.63;;;10.50;62.10;;;5.67;98.60;95493.41;5005334;28;20025;-52
2024/02/28 05:54:41;;;;;;;25.35;14.70;;;10.40;62.00;;;5.66;98.63;95491.78;5009736;28;20029;-55
2024/02/28 05:57:06;;;;;;;24.55;15.00;;;10.40;62.00;;;5.66;98.62;95497.88;5007407;28;20526;-54
2024/02/28 05:59:32;;;;;;;24.08;14.77;;;10.40;62.00;;;5.66;98.71;95502.38;5003572;28;20037;-53
2024/02/28 06:01:58;;;;;;;29.23;15.80;;;10.40;62.00;;;5.66;99.33;95512.94;5005226;28;20044;-54
2024/02/28 06:04:24;;;;;;;23.10;14.18;;;10.40;62.00;;;5.61;99.40;95520.75;5005776;28;20032;-57
2024/02/28 06:06:50;;;;;;;24.48;15.10;;;10.40;62.80;;;5.67;99.88;95522.47;5004174;28;20076;-56
2024/02/28 06:09:16;;;;;;;26.92;15.77;;;10.40;62.00;;;5.66;99.32;95524.31;5001088;28;20472;-54
2024/02/28 06:11:42;;;;;;;23.55;14.35;;;10.40;62.00;;;5.62;98.62;95536.41;4997987;28;20026;-56
2024/02/28 06:14:08;;;;;;;22.70;13.70;;;10.40;62.00;;;5.59;98.07;95544.00;4997674;28;20550;-55
2024/02/28 06:16:34;;;;;;;22.50;14.23;;;10.40;61.90;;;5.54;97.84;95542.03;5003490;28;20029;-58
2024/02/28 06:19:00;;;;;;;24.35;14.63;;;10.40;61.80;;;5.54;98.08;95547.31;5001665;28;20060;-55
2024/02/28 06:21:26;;;;;;;24.98;14.80;;;10.30;61.60;;;5.51;98.14;95550.44;4993160;28;20041;-53
2024/02/28 06:23:52;;;;;;;21.83;14.18;;;10.30;61.60;;;5.50;97.81;95560.19;4990628;28;20038;-55
2024/02/28 06:26:18;;;;;;;26.10;14.23;;;10.30;61.60;;;5.47;98.70;95557.22;5004877;28;20114;-54
2024/02/28 06:28:47;;;;;;;25.23;14.48;;;10.30;61.60;;;5.47;98.08;95562.50;5005423;28;20025;-53
2024/02/28 06:31:17;;;;;;;22.75;14.07;;;10.30;61.60;;;5.45;98.13;95564.56;5002160;28;20048;-53
2024/02/28 06:33:44;;;;;;;26.17;14.50;;;10.20;61.50;;;5.44;98.09;95568.25;5008446;28;20017;-55
2024/02/28 06:36:10;;;;;;;23.48;14.13;;;10.20;61.60;;;5.42;98.34;95572.94;5002858;28;20025;-52
2024/02/28 06:38:36;;;;;;;24.60;14.43;;;10.20;61.50;;;5.42;97.73;95579.06;5003108;28;20586;-52
2024/02/28 06:41:05;;;;;;;23.92;14.25;;;10.30;62.30;;;5.41;97.70;95582.72;5002985;28;20033;-53
2024/02/28 06:43:35;;;;;;;22.83;14.20;;;10.20;61.90;;;5.37;97.65;95578.94;5004481;28;20021;-54
2024/02/28 06:46:01;;;;;;;22.52;14.13;;;10.20;61.40;;;5.37;97.95;95588.72;5006091;28;20483;-52
2024/02/28 06:48:29;;;;;;;23.58;14.02;;;10.20;62.10;;;5.33;98.34;95589.16;5000575;28;20033;-54
2024/02/28 06:50:55;;;;;;;21.52;14.27;;;10.20;61.30;;;5.32;97.64;95595.47;5001015;28;20034;-58
2024/02/28 06:53:21;;;;;;;21.30;13.60;;;10.20;61.30;;;5.33;97.92;95596.31;5009163;28;20025;-53
2024/02/28 06:55:48;;;;;;;25.23;14.40;;;10.20;61.30;;;5.36;97.86;95598.47;5010795;28;20035;-57
2024/02/28 06:58:15;;;;;;;23.65;14.05;;;10.20;62.00;;;5.34;97.61;95601.34;5010435;28;20026;-54
2024/02/28 07:00:41;;;;;;;23.77;14.05;;;10.20;61.20;;;5.32;98.21;95598.13;5005513;28;20037;-56
2024/02/28 07:03:07;;;;;;;25.88;13.52;;;10.20;61.20;;;5.29;98.36;95598.56;4992851;28;20018;-56
2024/02/28 07:05:33;;;;;;;21.60;13.43;;;10.20;62.00;;;5.27;98.98;95605.94;4992223;28;20025;-56
2024/02/28 07:08:00;;;;;;;23.67;14.60;;;10.20;61.20;;;5.24;99.04;95613.53;4996233;28;20033;-56
2024/02/28 07:10:27;;;;;;;24.60;13.38;;;10.20;61.20;;;5.27;98.86;95616.50;4992540;28;20021;-58
2024/02/28 07:12:52;;;;;;;22.13;13.52;;;10.20;61.20;;;5.28;98.98;95612.81;4994422;28;20430;-55
2024/02/28 07:15:21;;;;;;;21.45;13.02;;;10.20;61.20;;;5.29;99.37;95621.53;4994704;28;20026;-55
2024/02/28 07:17:47;;;;;;;25.55;13.65;;;10.20;61.20;;;5.24;99.49;95621.44;4995175;28;20026;-58
2024/02/28 07:20:13;;;;;;;22.15;13.60;;;10.20;61.20;;;5.20;99.54;95621.09;4995664;28;20052;-58
2024/02/28 07:22:42;;;;;;;25.30;14.18;;;10.20;61.20;;;5.22;99.86;95616.38;4994538;28;20057;-55
2024/02/28 07:25:08;;;;;;;22.45;13.43;;;10.20;61.20;;;5.21;99.90;95622.72;4995822;28;20033;-58
2024/02/28 07:27:34;;;;;;;24.38;13.18;;;10.20;61.20;;;5.21;100.00;95620.06;4994313;28;20497;-58
2024/02/28 07:30:03;;;;;;;26.58;13.95;;;10.20;61.30;;;5.21;99.33;95619.25;4995175;28;20040;-55
2024/02/28 07:32:34;;;;;;;22.90;13.70;;;10.20;61.20;;;5.18;99.01;95622.38;4994956;28;20405;-54
2024/02/28 07:35:03;;;;;;;24.83;13.55;;;10.20;61.20;;;5.16;99.77;95619.94;4994934;28;20031;-54
2024/02/28 07:37:29;;;;;;;22.27;13.38;;;10.20;61.10;;;5.18;99.56;95623.16;4991130;28;20129;-53
2024/02/28 07:39:55;;;;;;;24.58;13.73;;;10.20;61.10;;;5.17;99.02;95628.66;4995030;28;20030;-54
2024/02/28 07:42:21;;;;;;;19.38;12.57;;;10.20;61.10;;;5.18;98.01;95630.28;4994574;28;20032;-55
2024/02/28 07:44:46;;;;;;;22.38;12.80;;;10.20;61.00;;;5.12;98.66;95637.28;4995809;28;20041;-57
2024/02/28 07:47:14;;;;;;;23.35;13.20;;;10.20;61.00;;;5.17;98.36;95634.78;4991106;28;20025;-57
2024/02/28 07:49:40;;;;;;;22.65;13.32;;;10.20;61.00;;;5.20;97.42;95630.84;4996627;28;20037;-58
2024/02/28 07:52:06;;;;;;;21.77;13.00;;;10.20;61.70;;;5.18;99.13;95636.38;4993888;28;20461;-58
2024/02/28 07:54:31;;;;;;;23.27;13.07;;;10.20;60.90;;;5.18;98.03;95641.66;4995097;28;20026;-56
2024/02/28 07:56:57;;;;;;;23.05;13.30;;;10.20;60.80;;;5.17;97.86;95641.88;4994317;28;20072;-54
2024/02/28 07:59:23;;;;;;;23.17;13.30;;;10.20;61.60;;;5.23;97.85;95643.59;4976579;28;20036;-55
2024/02/28 08:01:49;;;;;;;20.63;12.38;;;10.20;60.70;;;5.22;98.24;95648.06;4992127;28;20051;-53
2024/02/28 08:04:14;;;;;;;22.55;13.57;;;10.30;60.80;;;5.25;98.05;95652.09;4991587;28;20449;-58
2024/02/28 08:06:41;;;;;;;21.27;12.60;;;10.30;60.80;;;5.28;97.54;95649.00;4993539;28;20029;-56
2024/02/28 08:09:07;;;;;;;21.83;12.30;;;10.30;60.70;;;5.32;96.67;95650.13;4993283;28;20021;-57
2024/02/28 08:11:33;;;;;;;21.00;13.10;;;10.30;60.60;;;5.32;97.05;95652.78;4991833;28;20030;-58
2024/02/28 08:13:58;;;;;;;20.00;12.02;;;10.30;60.50;;;5.36;97.04;95645.19;4993558;28;20099;-54
2024/02/28 08:16:24;;;;;;;22.80;12.95;;;10.30;60.50;;;5.32;95.50;95655.41;4993290;28;20550;-52
2024/02/28 08:18:50;;;;;;;26.98;13.65;;;10.40;61.20;;;5.33;95.82;95654.41;4993537;28;20357;-53
2024/02/28 08:21:17;;;;;;;22.75;12.75;;;10.40;60.30;;;5.37;96.59;95649.47;4993590;28;20072;-55
2024/02/28 08:23:43;;;;;;;19.25;12.20;;;10.40;60.30;;;5.37;96.41;95649.47;4993416;28;20072;-55
2024/02/28 08:26:10;;;;;;;19.45;12.25;;;10.40;60.20;;;5.41;95.77;95640.84;4992608;28;20297;-54
2024/02/28 08:28:36;;;;;;;20.33;12.35;;;10.50;60.20;;;5.39;95.87;95645.56;4983548;28;20464;-55
2024/02/28 08:31:02;;;;;;;21.27;12.60;;;10.50;60.10;;;5.40;95.66;95649.81;4991548;28;20057;-56
2024/02/28 08:33:27;;;;;;;19.25;12.98;;;10.50;60.00;;;5.45;94.95;95651.75;4989784;28;20478;-55
2024/02/28 08:35:53;;;;;;;22.85;13.77;;;10.50;60.00;;;5.46;94.45;95653.38;4993200;28;20068;-56
2024/02/28 08:38:19;;;;;;;18.48;12.20;;;10.50;59.90;;;5.43;94.35;95653.84;4992603;28;20021;-55
2024/02/28 08:40:45;;;;;;;18.88;12.90;;;10.60;59.80;;;5.46;94.46;95662.09;4991185;28;20030;-57
2024/02/28 08:43:11;;;;;;;19.15;12.40;;;10.60;59.70;;;5.47;94.36;95662.91;4991566;28;20547;-56
2024/02/28 08:45:37;;;;;;;18.92;12.40;;;10.60;59.60;;;5.50;93.46;95660.59;4989524;28;20080;-52
2024/02/28 08:48:03;;;;;;;19.67;12.38;;;10.70;59.60;;;5.53;94.29;95670.72;4991864;28;20021;-53
2024/02/28 08:50:29;;;;;;;21.95;12.30;;;10.70;59.50;;;5.59;94.38;95670.84;4993063;28;20076;-56
2024/02/28 08:52:55;;;;;;;21.30;13.15;;;10.70;59.50;;;5.51;93.80;95669.31;4990094;28;20436;-57
2024/02/28 08:55:21;;;;;;;22.05;13.23;;;10.70;59.40;;;5.51;93.95;95671.97;4992446;28;20057;-53
2024/02/28 08:57:49;;;;;;;22.20;13.45;;;10.80;59.30;;;5.56;93.78;95672.88;4996420;28;20025;-55
2024/02/28 09:00:16;;;;;;;18.92;12.48;;;10.80;59.30;;;5.57;93.41;95674.50;4986939;28;20105;-57
2024/02/28 09:02:42;;;;;;;20.85;12.75;;;10.80;59.20;;;5.63;93.92;95671.97;4991911;28;20472;-53
2024/02/28 09:05:09;;;;;;;22.13;12.98;;;10.80;59.20;;;5.57;94.24;95679.78;4981458;28;20424;-52
2024/02/28 09:07:35;;;;;;;21.73;13.60;;;10.90;59.20;;;5.54;93.42;95676.78;4991941;28;20108;-53
2024/02/28 09:10:06;;;;;;;20.10;12.68;;;10.90;59.20;;;5.55;93.32;95681.06;4993356;28;20033;-53
2024/02/28 09:12:32;;;;;;;19.52;12.43;;;10.90;59.10;;;5.55;92.54;95687.16;4992241;28;20057;-56
2024/02/28 09:14:58;;;;;;;23.27;13.27;;;10.90;59.00;;;5.65;93.12;95688.41;4991721;28;20044;-57
2024/02/28 09:17:24;;;;;;;20.50;12.80;;;11.00;58.90;;;5.68;91.84;95682.66;4986982;28;20273;-56
2024/02/28 09:19:51;;;;;;;20.92;12.75;;;11.00;58.90;;;5.77;92.01;95690.00;4991555;28;20249;-56
2024/02/28 09:22:17;;;;;;;20.67;13.60;;;11.10;58.90;;;5.85;90.74;95694.13;4989306;28;20365;-52
2024/02/28 09:24:44;;;;;;;20.35;12.32;;;11.10;58.80;;;5.97;90.38;95692.31;4991256;28;20033;-56
2024/02/28 09:27:10;;;;;;;20.33;12.45;;;11.20;58.70;;;6.08;90.43;95690.69;4987323;28;20108;-56
2024/02/28 09:29:35;;;;;;;21.92;13.25;;;11.30;58.70;;;6.19;89.16;95695.13;4990733;28;20088;-56
2024/02/28 09:32:02;;;;;;;19.42;12.60;;;11.40;58.60;;;6.33;89.01;95708.09;4987947;28;20492;-57
2024/02/28 09:34:27;;;;;;;19.67;12.73;;;11.50;58.60;;;6.23;88.97;95700.75;4986902;28;20515;-55
2024/02/28 09:36:53;;;;;;;21.75;13.05;;;11.50;58.40;;;6.35;88.42;95701.53;4989474;28;20415;-54
2024/02/28 09:39:19;;;;;;;19.80;12.15;;;11.60;58.40;;;6.47;87.99;95701.50;4983237;28;20439;-54
2024/02/28 09:41:51;;;;;;;20.63;13.35;;;11.70;58.30;;;6.54;87.77;95704.00;4984306;28;20026;-58
2024/02/28 09:44:20;;;;;;;21.52;13.13;;;11.80;58.20;;;6.62;87.21;95706.28;4986492;28;20021;-56
2024/02/28 09:46:51;;;;;;;22.40;13.60;;;11.90;58.10;;;6.66;86.77;95702.91;4996662;28;20446;-55
2024/02/28 09:49:19;;;;;;;21.67;12.95;;;12.00;57.90;;;6.69;87.08;95701.66;4976271;28;20116;-53
2024/02/28 09:51:52;;;;;;;19.88;13.13;;;12.10;57.80;;;6.63;85.76;95702.59;4985744;28;20386;-52
2024/02/28 09:54:19;;;;;;;21.15;13.45;;;12.20;57.50;;;6.68;86.62;95703.50;4985385;28;20029;-56
2024/02/28 09:56:47;;;;;;;22.08;13.65;;;12.20;57.40;;;6.80;86.36;95708.75;4978236;28;20034;-54
2024/02/28 09:59:18;;;;;;;25.33;13.48;;;12.20;57.40;;;6.82;86.73;95708.50;4970593;28;20037;-52
2024/02/28 10:01:57;;;;;;;22.92;13.98;;;12.30;57.40;;;6.93;85.73;95705.81;4969937;28;20084;-53
2024/02/28 10:04:27;;;;;;;26.42;14.70;;;12.30;57.20;;;6.97;84.37;95700.81;4984419;28;20037;-57